HOURLY OBS INDEX

005

Pilbara - Fortescue

BARROW ISLAND AIRPORT

Site: 005094
Alt: 6.4m
90km NNE of ONSLOW


  Time     Wind        Temp  DP   Baro     Rain since   Rain past  Vis(m), Cloud(base in m), Weather
  local        km/h                         9am  last   hr   10m    
Mon 18:00  WSW 39/ 46  28.7 20.4  1004.6    0.0   0.0   0.0   0.0   ----- 
Mon 18:00  WSW 39/ 46  28.7 20.4  1004.6    0.0   0.0  ----   0.0   ----- 
Mon 18:30   SW 37/ 43  27.9 20.2  1004.9    0.0   0.0   0.0   0.0   ----- 
Mon 19:00   SW 35/ 45  27.4 20.5  1005.2    0.0   0.0   0.0   0.0   ----- 
Mon 19:30   SW 37/ 45  27.2 20.5  1005.5    0.0   0.0   0.0   0.0   ----- 
Mon 20:00   SW 39/ 46  27.1 20.4  1005.8    0.0   0.0   0.0   0.0   ----- 
Mon 20:30   SW 39/ 46  27.2 19.8  1006.0    0.0   0.0   0.0   0.0   ----- 
Mon 21:00   SW 41/ 50  27.1 20.2  1006.1    0.0   0.0   0.0   0.0   ----- 
Mon 21:30   SW 41/ 48  26.9 20.7  1006.3    0.0   0.0   0.0   0.0   ----- 
Mon 22:00   SW 45/ 54  26.9 21.0  1006.5    0.0   0.0   0.0   0.0   ----- 
Mon 22:30   SW 45/ 54  26.8 21.3  1006.3    0.0   0.0   0.0   0.0   ----- 
Mon 23:00   SW 45/ 52  26.6 21.4  1006.3    0.0   0.0   0.0   0.0   ----- 
Mon 23:00   SW 45/ 52  26.6 21.4  1006.3    0.0   0.0  ----   0.0   ----- 

BOOLGEEDA AIRPORT

Site: 005BGD
Alt: 585m
207km SSE of KARRATHA


  Time     Wind        Temp  DP   Baro     Rain since   Rain past  Vis(m), Cloud(base in m), Weather
  local        km/h                         9am  last   hr   10m    
Mon 18:00   SW 22/ 33  40.0  6.4  1007.6    0.0   0.0   0.0   0.0   10000 
Mon 18:00   SW 22/ 33  40.0  6.4  1007.6    0.0   0.0  ----   0.0   10000 
Mon 18:30  WSW 20/ 32  39.0  5.6  1007.9    0.0   0.0   0.0   0.0   10000 
Mon 19:00  WSW 19/ 28  37.8  4.7  1008.3    0.0   0.0   0.0   0.0   10000 
Mon 19:30  WSW 17/ 26  36.9  4.0  1008.8    0.0   0.0   0.0   0.0   10000 
Mon 20:00  WSW 11/ 17  35.6  4.0  1009.1    0.0   0.0   0.0   0.0   10000 
Mon 20:30   SW 13/ 26  35.5  3.9  1009.6    0.0   0.0   0.0   0.0   10000 
Mon 21:00  SSW 15/ 26  35.5  3.9  1010.0    0.0   0.0   0.0   0.0   10000 
Mon 21:30   SW 11/ 17  34.3  3.0  1010.5    0.0   0.0   0.0   0.0   10000 
Mon 22:00  SSW  7/  9  32.7  2.7  1010.8    0.0   0.0   0.0   0.0   10000 
Mon 22:30   SW  9/ 13  32.0  3.1  1010.9    0.0   0.0   0.0   0.0   10000 
Mon 23:00  SSE  4/  6  30.6  2.8  1010.9    0.0   0.0   0.0   0.0   10000 
Mon 23:00  SSE  4/  6  30.6  2.8  1010.9    0.0   0.0  ----   0.0   10000 

CHRISTMAS CREEK MINE AP

Site: 005CHK
Alt: m
111km N of NEWMAN


  Time     Wind        Temp  DP   Baro     Rain since   Rain past  Vis(m), Cloud(base in m), Weather
  local        km/h                         9am  last   hr   10m    
Mon 18:00  WSW 24/ 39  29.4 17.9  1008.0    9.0   0.0   9.0   0.0   10000|SC1740 SC3600 
Mon 18:00  WSW 24/ 39  29.4 17.9  1008.0    9.0   0.0  ----   0.0   10000|SC1740 SC3600 
Mon 18:29  WSW 28/ 46  27.3 18.3  1009.2    9.2   0.2  ----   0.2   10000|BR3600 
Mon 18:30  WSW 30/ 46  27.5 17.7  1009.1    9.2   0.0   8.8   0.2   10000|BR3600 
Mon 18:39   SW 28/ 46  29.4 16.6  1008.8    9.2   0.0  ----   0.0   10000|BR3600 
Mon 19:00  SSW 20/ 37  30.2 16.2  1008.7    9.2   0.0   0.2   0.0   10000|SC3600 
Mon 19:30   NE 13/ 20  29.2 19.2  1007.4    9.4   0.2   0.2   0.0   10000|SC3600 
Mon 20:00    N 20/ 26  29.2 18.6  1008.7    9.4   0.0   0.2   0.0   10000 
Mon 20:08    N 28/ 46  29.0 18.1  1008.3    9.4   0.0  ----   0.0   10000 
Mon 20:30    E 19/ 24  29.8 18.3  1008.5    9.4   0.0   0.0   0.0   10000 
Mon 21:00   NE 11/ 20  30.5 17.6  1008.3    9.4   0.0   0.0   0.0   10000|SC3300 
Mon 21:16    N 30/ 43  30.5 17.6  1008.8    9.4   0.0  ----   0.0   10000 
Mon 21:30    N 22/ 30  29.5 18.0  1008.8    9.4   0.0   0.0   0.0   10000 
Mon 22:00    N 19/ 22  30.3 17.0  1009.3    9.4   0.0   0.0   0.0   10000 
Mon 22:30  WSW 13/ 20  29.2 18.3  1010.0    9.4   0.0   0.0   0.0   10000 
Mon 23:00    N  4/  6  28.3 20.6  1009.5    9.4   0.0   0.0   0.0   10000 
Mon 23:00    N  4/  6  28.3 20.6  1009.5    9.4   0.0  ----   0.0   10000 

FORTESCUE DAVE FORREST AP

Site: 005FDF
Alt: 450m
124km NNW of NEWMAN


  Time     Wind        Temp  DP   Baro     Rain since   Rain past  Vis(m), Cloud(base in m), Weather
  local        km/h                         9am  last   hr   10m    
Mon 18:00  SSW 33/ 48  26.4 17.7  1009.1    2.8   0.2   2.6   0.8    9000|SC2520 BR3450 
Mon 18:00  SSW 33/ 48  26.4 17.7  1009.1    2.8   0.0  ----   0.8    9000|SC2520 BR3450 
Mon 18:02  SSW 30/ 48  26.5 17.8  1009.2    2.8   0.0  ----   0.4   10000|SC2520 BR3450 
Mon 18:02  SSW 30/ 48  26.5 17.8  1009.2    2.8   0.0  ----   0.4   10000|SC2520 BR3450 
Mon 18:07  SSW 24/ 48  28.0 17.5  1009.5    2.8   0.0  ----   0.2   10000|SC2670 OC3450 
Mon 18:07  SSW 24/ 48  28.0 17.5  1009.5    2.8   0.0  ----   0.2   10000|SC2670 OC3450 
Mon 18:30    S 17/ 22  26.1 18.8  1009.3    3.0   0.2   2.6   0.2   10000|OC3150 
Mon 19:00    E  9/ 15  29.4 17.9  1008.6    3.2   0.2   0.4   0.0   10000|SC1800 BR3000 BR3600 
Mon 19:30    N 17/ 20  28.7 19.9  1007.4    3.2   0.0   0.2   0.0   10000|SC2130 SC3300 
Mon 20:00  NNE 19/ 28  33.8 12.7  1007.9    3.2   0.0   0.0   0.0   10000 
Mon 20:30    N  9/ 13  32.3 14.9  1008.0    3.2   0.0   0.0   0.0   10000 
Mon 21:00  NNW 15/ 20  30.7 17.0  1008.8    3.2   0.0   0.0   0.0   10000 
Mon 21:30    N 17/ 24  29.5 18.0  1009.8    3.2   0.0   0.0   0.0   10000 
Mon 22:00    N 11/ 15  29.1 17.6  1010.1    3.2   0.0   0.0   0.0   10000 
Mon 22:30  WNW  9/ 13  28.8 18.0  1010.1    3.2   0.0   0.0   0.0   10000 
Mon 23:00  WNW 13/ 20  28.7 18.5  1010.1    3.2   0.0   0.0   0.0   10000 
Mon 23:00  WNW 13/ 20  28.7 18.5  1010.1    3.2   0.0  ----   0.0   10000 

KARIJINI NORTH

Site: 005098
Alt: 474.0m
km of


  Time     Wind        Temp  DP   Baro     Rain since   Rain past  Vis(m), Cloud(base in m), Weather
  local        km/h                         9am  last   hr   10m    
Mon 18:00   SE 13/ 20  32.5 15.5  1007.5    1.2   0.0   0.0   0.0   ----- 
Mon 18:00   SE 13/ 20  32.5 15.5  1007.5    1.2   0.0  ----   0.0   ----- 
Mon 18:30   NE  9/ 15  32.8 15.3  1008.0    1.2   0.0   0.0   0.0   ----- 
Mon 19:00    E  4/ 11  32.2 16.5  1007.7    1.2   0.0   0.0   0.0   ----- 
Mon 19:30    S  6/  9  31.6 17.9  1008.0    1.2   0.0   0.0   0.0   ----- 
Mon 20:00    W 11/ 17  31.5 18.1  1009.0    1.2   0.0   0.0   0.0   ----- 
Mon 20:30   NW  7/ 11  32.2 15.7  1009.6    1.2   0.0   0.0   0.0   ----- 
Mon 21:00   NE  6/  7  32.1 15.6  1009.9    1.2   0.0   0.0   0.0   ----- 
Mon 21:30  WNW 15/ 22  31.8 17.7  1010.2    1.2   0.0   0.0   0.0   ----- 
Mon 22:00   NW  7/ 11  31.7 17.9  1010.3    1.2   0.0   0.0   0.0   ----- 
Mon 22:30  WNW 13/ 19  31.8 18.7  1010.3    1.2   0.0   0.0   0.0   ----- 
Mon 23:00    W 13/ 20  31.6 18.6  1010.5    1.2   0.0   0.0   0.0   ----- 
Mon 23:00    W 13/ 20  31.6 18.6  1010.5    1.2   0.0  ----   0.0   ----- 

LEARMONTH AIRPORT

Site: 005007
Alt: 5.0m
34km S of EXMOUTH


  Time     Wind        Temp  DP   Baro     Rain since   Rain past  Vis(m), Cloud(base in m), Weather
  local        km/h                         9am  last   hr   10m    
Mon 18:00  SSW 33/ 43  30.7 13.9  1007.1    0.0   0.0   0.0   0.0   10000 
Mon 18:00  SSW 33/ 43  30.7 13.9  1007.1    0.0   0.0  ----   0.0   10000 
Mon 18:30   SW 32/ 43  29.3 14.7  1007.5    0.0   0.0   0.0   0.0   10000 
Mon 19:00   SW 32/ 41  27.0 16.0  1007.8    0.0   0.0   0.0   0.0   10000 
Mon 19:30   SW 28/ 39  25.9 16.2  1008.3    0.0   0.0   0.0   0.0   10000 
Mon 20:00   SW 28/ 39  25.2 16.4  1008.6    0.0   0.0   0.0   0.0   10000 
Mon 20:30   SW 30/ 39  24.5 16.5  1008.8    0.0   0.0   0.0   0.0   10000 
Mon 21:00   SW 26/ 39  23.8 16.8  1009.1    0.0   0.0   0.0   0.0   10000 
Mon 21:30  SSW 26/ 35  23.3 16.8  1009.4    0.0   0.0   0.0   0.0   10000 
Mon 22:00  SSW 28/ 39  22.8 16.8  1009.5    0.0   0.0   0.0   0.0   10000 
Mon 22:30   SW 32/ 39  22.6 16.6  1009.5    0.0   0.0   0.0   0.0   10000 
Mon 23:00  SSW 30/ 37  22.2 16.7  1009.4    0.0   0.0   0.0   0.0   10000 
Mon 23:00  SSW 30/ 37  22.2 16.7  1009.4    0.0   0.0  ----   0.0   10000 

MARDIE

Site: 005008
Alt: 11.0m
103km ENE of ONSLOW


  Time     Wind        Temp  DP   Baro     Rain since   Rain past  Vis(m), Cloud(base in m), Weather
  local        km/h                         9am  last   hr   10m    
Mon 18:00  NNW 15/ 22  32.9 16.7  1004.4    0.0   0.0   0.0   0.0   ----- 
Mon 18:00  NNW 15/ 22  32.9 16.7  1004.4    0.0   0.0  ----   0.0   ----- 
Mon 18:30  WNW 19/ 33  32.7 16.5  1004.4    0.0   0.0   0.0   0.0   ----- 
Mon 19:00    N 11/ 19  31.2 17.5  1004.7    0.0   0.0   0.0   0.0   ----- 
Mon 19:30  WNW  6/ 13  31.4 18.0  1005.1    0.0   0.0   0.0   0.0   ----- 
Mon 20:00   SW  7/ 13  31.4 18.4  1005.3    0.0   0.0   0.0   0.0   ----- 
Mon 20:30  WSW  7/ 11  30.9 18.9  1005.4    0.0   0.0   0.0   0.0   ----- 
Mon 21:00  WSW  9/ 11  31.3 18.3  1005.7    0.0   0.0   0.0   0.0   ----- 
Mon 21:30  WSW  4/  7  30.4 17.5  1005.8    0.0   0.0   0.0   0.0   ----- 
Mon 22:00   SW  9/ 11  30.1 16.5  1005.9    0.0   0.0   0.0   0.0   ----- 
Mon 22:30   SW  7/  9  29.9 15.6  1006.0    0.0   0.0   0.0   0.0   ----- 
Mon 23:00   SW  6/  7  29.2 15.0  1006.0    0.0   0.0   0.0   0.0   ----- 
Mon 23:00   SW  6/  7  29.2 15.0  1006.0    0.0   0.0  ----   0.0   ----- 

ONSLOW AIRPORT

Site: 005017
Alt: 10.5m
3km S of ONSLOW


  Time     Wind        Temp  DP   Baro     Rain since   Rain past  Vis(m), Cloud(base in m), Weather
  local        km/h                         9am  last   hr   10m    
Mon 18:00  WSW 33/ 48  36.7 13.5  1005.2    0.0   0.0   0.0   0.0   10000 
Mon 18:00  WSW 33/ 48  36.7 13.5  1005.2    0.0   0.0  ----   0.0   10000 
Mon 18:30  WSW 33/ 43  35.1 14.9  1005.6    0.0   0.0   0.0   0.0   10000 
Mon 19:00  WSW 32/ 43  33.8 15.7  1006.1    0.0   0.0   0.0   0.0   10000 
Mon 19:30  WSW 28/ 37  32.5 16.3  1006.4    0.0   0.0   0.0   0.0   10000 
Mon 20:00   SW 30/ 39  32.0 16.3  1006.7    0.0   0.0   0.0   0.0   10000 
Mon 20:30   SW 30/ 41  31.3 16.5  1007.0    0.0   0.0   0.0   0.0   10000 
Mon 21:00   SW 30/ 39  30.5 16.5  1007.2    0.0   0.0   0.0   0.0   10000 
Mon 21:30   SW 28/ 35  29.9 16.3  1007.5    0.0   0.0   0.0   0.0   10000 
Mon 22:00   SW 26/ 33  29.2 16.4  1007.8    0.0   0.0   0.0   0.0   10000 
Mon 22:30   SW 26/ 35  28.7 15.9  1007.8    0.0   0.0   0.0   0.0   10000 
Mon 23:00   SW 26/ 32  28.1 15.4  1007.8    0.0   0.0   0.0   0.0   10000 
Mon 23:00   SW 26/ 32  28.1 15.4  1007.8    0.0   0.0  ----   0.0   10000 

SOLOMON AERODROME

Site: 005SOL
Alt: 625m
235km WSW of MARBLE BAR


  Time     Wind        Temp  DP   Baro     Rain since   Rain past  Vis(m), Cloud(base in m), Weather
  local        km/h                         9am  last   hr   10m    
Mon 18:00  NNW 13/ 22  39.8  8.3  1007.6    0.0   0.0   0.0   0.0   10000 
Mon 18:00  NNW 13/ 22  39.8  8.3  1007.6    0.0   0.0  ----   0.0   10000 
Mon 18:30  WNW 13/ 20  39.6  4.9  1007.9    0.0   0.0   0.0   0.0   10000 
Mon 18:51   NW 28/ 39  37.8 14.4  1008.1    0.0   0.0  ----   0.0   10000 
Mon 19:00   NW 24/ 35  37.6 15.4  1008.2    0.0   0.0   0.0   0.0   10000 
Mon 19:30  NNW 26/ 41  35.9 18.0  1008.8    0.0   0.0   0.0   0.0   10000 
Mon 20:00   NW 26/ 37  34.9 18.0  1009.5    0.0   0.0   0.0   0.0   10000 
Mon 20:30  NNW 24/ 33  34.2 17.8  1009.9    0.0   0.0   0.0   0.0   10000 
Mon 21:00  NNW 22/ 33  33.1 18.1  1010.5    0.0   0.0   0.0   0.0   10000 
Mon 21:30    N 20/ 30  32.1 17.9  1010.9    0.0   0.0   0.0   0.0   10000 
Mon 22:00  NNW 20/ 32  31.4 18.0  1011.2    0.0   0.0   0.0   0.0   10000 
Mon 22:30    N 11/ 22  30.8 18.2  1011.5    0.0   0.0   0.0   0.0   10000 
Mon 23:00  NNW 15/ 22  29.9 18.0  1011.2    0.0   0.0   0.0   0.0   10000 
Mon 23:00  NNW 15/ 22  29.9 18.0  1011.2    0.0   0.0  ----   0.0   10000